createdAt,value
2018-08-21T00:00:51.064Z,22.60
2018-08-21T00:01:51.053Z,25.00
2018-08-21T00:02:51.145Z,24.00
2018-08-21T00:03:51.037Z,23.60
2018-08-21T00:04:51.029Z,23.40
2018-08-21T00:05:51.021Z,27.20
2018-08-21T00:06:51.013Z,25.20
2018-08-21T00:07:51.005Z,29.70
2018-08-21T00:08:50.998Z,24.40
2018-08-21T00:09:50.988Z,25.80
2018-08-21T00:10:50.982Z,23.20
2018-08-21T00:11:50.973Z,23.60
2018-08-21T00:12:50.965Z,24.60
2018-08-21T00:13:50.955Z,24.00
2018-08-21T00:14:51.048Z,25.20
2018-08-21T00:15:50.940Z,24.40
2018-08-21T00:16:50.934Z,26.00
2018-08-21T00:17:50.923Z,24.70
2018-08-21T00:18:50.915Z,24.50
2018-08-21T00:19:50.908Z,26.00
2018-08-21T00:20:50.900Z,25.40
2018-08-21T00:21:50.899Z,24.80
2018-08-21T00:22:50.885Z,25.60
2018-08-21T00:23:50.882Z,27.20
2018-08-21T00:24:50.871Z,26.20
2018-08-21T00:25:50.861Z,24.50
2018-08-21T00:26:50.853Z,25.40
2018-08-21T00:27:50.846Z,25.30
2018-08-21T00:28:50.837Z,28.50
2018-08-21T00:29:50.828Z,25.50
2018-08-21T00:30:50.819Z,28.80
2018-08-21T00:31:50.811Z,25.90
2018-08-21T00:32:50.801Z,25.60
2018-08-21T00:33:50.798Z,25.00
2018-08-21T00:34:50.788Z,27.00
2018-08-21T00:35:50.777Z,25.50
2018-08-21T00:36:50.769Z,26.30
2018-08-21T00:37:50.759Z,26.80
2018-08-21T00:38:50.751Z,25.80
2018-08-21T00:39:50.743Z,28.90
2018-08-21T00:40:50.734Z,25.60
2018-08-21T00:41:50.725Z,26.00
2018-08-21T00:42:50.717Z,26.50
2018-08-21T00:43:50.708Z,26.00
2018-08-21T00:44:50.699Z,27.30
2018-08-21T00:45:50.691Z,28.40
2018-08-21T00:46:50.681Z,29.50
2018-08-21T00:47:50.672Z,27.10
2018-08-21T00:48:50.664Z,29.60
2018-08-21T00:49:50.654Z,26.00
2018-08-21T00:50:50.644Z,31.60
2018-08-21T00:51:50.639Z,27.50
2018-08-21T00:52:50.630Z,26.00
2018-08-21T00:53:50.619Z,26.00
2018-08-21T00:54:50.815Z,27.10
2018-08-21T00:55:50.599Z,26.60
2018-08-21T00:56:50.692Z,28.30
2018-08-21T00:57:50.584Z,27.00
2018-08-21T00:58:50.573Z,26.90
2018-08-21T00:59:50.565Z,26.50
2018-08-21T01:00:50.556Z,25.70
2018-08-21T01:01:50.547Z,27.50
2018-08-21T01:02:50.638Z,26.70
2018-08-21T01:03:50.528Z,27.40
2018-08-21T01:04:50.519Z,26.10
2018-08-21T01:05:50.510Z,24.90
2018-08-21T01:06:50.500Z,25.50
2018-08-21T01:07:50.490Z,26.10
2018-08-21T01:08:50.482Z,27.80
2018-08-21T01:09:50.472Z,25.90
2018-08-21T01:10:50.462Z,26.10
2018-08-21T01:11:50.453Z,28.90
2018-08-21T01:12:50.446Z,27.80
2018-08-21T01:13:50.434Z,26.30
2018-08-21T01:14:50.425Z,25.90
2018-08-21T01:15:50.416Z,28.20
2018-08-21T01:16:50.409Z,27.30
2018-08-21T01:17:50.396Z,27.40
2018-08-21T01:18:50.387Z,25.60
2018-08-21T01:19:50.379Z,26.30
2018-08-21T01:20:50.470Z,26.60
2018-08-21T01:21:50.359Z,25.60
2018-08-21T01:22:50.352Z,27.80
2018-08-21T01:23:50.341Z,26.70
2018-08-21T01:24:50.332Z,28.00
2018-08-21T01:25:50.321Z,26.20
2018-08-21T01:26:50.315Z,28.20
2018-08-21T01:27:50.305Z,28.40
2018-08-21T01:28:50.295Z,26.50
2018-08-21T01:29:50.283Z,29.60
2018-08-21T01:30:50.275Z,28.40
2018-08-21T01:31:50.266Z,30.00
2018-08-21T01:32:50.256Z,29.50
2018-08-21T01:33:50.247Z,27.80
2018-08-21T01:34:50.237Z,28.40
2018-08-21T01:35:50.229Z,29.00
2018-08-21T01:36:50.219Z,29.00
2018-08-21T01:37:50.208Z,28.60
2018-08-21T01:38:50.302Z,28.20
2018-08-21T01:39:50.191Z,31.40
2018-08-21T01:40:50.183Z,31.20
2018-08-21T01:41:50.171Z,31.10
2018-08-21T01:42:50.162Z,30.40
2018-08-21T01:43:50.152Z,31.70
2018-08-21T01:44:50.143Z,32.10
2018-08-21T01:45:50.132Z,29.60
2018-08-21T01:46:50.124Z,30.00
2018-08-21T01:47:50.114Z,33.20
2018-08-21T01:48:50.105Z,30.10
2018-08-21T01:49:50.094Z,30.80
2018-08-21T01:50:50.085Z,31.60
2018-08-21T01:51:50.076Z,32.10
2018-08-21T01:52:50.065Z,32.50
2018-08-21T01:53:50.056Z,32.00
2018-08-21T01:54:50.045Z,31.50
2018-08-21T01:55:50.040Z,32.50
2018-08-21T01:56:50.128Z,31.10
2018-08-21T01:57:50.017Z,32.00
2018-08-21T01:58:50.006Z,34.20
2018-08-21T01:59:50.001Z,36.00
2018-08-21T02:00:49.988Z,33.80
2018-08-21T02:01:49.978Z,33.40
2018-08-21T02:02:49.969Z,32.80
2018-08-21T02:03:49.959Z,34.00
2018-08-21T02:04:49.954Z,36.20
2018-08-21T02:05:49.943Z,34.90
2018-08-21T02:06:49.931Z,35.10
2018-08-21T02:07:49.921Z,32.60
2018-08-21T02:08:49.911Z,35.50
2018-08-21T02:09:49.903Z,33.50
2018-08-21T02:10:49.891Z,37.40
2018-08-21T02:11:49.882Z,37.10
2018-08-21T02:12:49.876Z,34.80
2018-08-21T02:13:49.862Z,36.30
2018-08-21T02:14:49.853Z,34.90
2018-08-21T02:15:49.843Z,37.20
2018-08-21T02:16:49.833Z,36.90
2018-08-21T02:17:49.823Z,39.60
2018-08-21T02:18:49.814Z,38.90
2018-08-21T02:19:49.806Z,36.30
2018-08-21T02:20:49.795Z,34.40
2018-08-21T02:21:49.784Z,35.20
2018-08-21T02:22:49.774Z,36.20
2018-08-21T02:23:49.765Z,38.30
2018-08-21T02:24:49.756Z,34.90
2018-08-21T02:25:49.745Z,37.80
2018-08-21T02:26:49.735Z,37.80
2018-08-21T02:27:49.726Z,37.10
2018-08-21T02:28:49.720Z,39.30
2018-08-21T02:29:49.708Z,36.80
2018-08-21T02:30:49.696Z,36.60
2018-08-21T02:31:49.743Z,38.00
2018-08-21T02:32:49.678Z,38.00
2018-08-21T02:33:49.666Z,40.90
2018-08-21T02:34:49.656Z,39.20
2018-08-21T02:35:49.646Z,41.20
2018-08-21T02:36:49.637Z,40.50
2018-08-21T02:37:49.625Z,41.80
2018-08-21T02:38:49.616Z,41.90
2018-08-21T02:39:49.607Z,40.80
2018-08-21T02:40:49.599Z,38.80
2018-08-21T02:41:49.585Z,39.90
2018-08-21T02:42:49.576Z,42.30
2018-08-21T02:43:49.567Z,39.80
2018-08-21T02:44:49.657Z,40.80
2018-08-21T02:45:49.545Z,39.40
2018-08-21T02:46:49.536Z,44.60
2018-08-21T02:47:49.527Z,43.00
2018-08-21T02:48:49.603Z,42.00
2018-08-21T02:49:49.506Z,43.20
2018-08-21T02:50:49.496Z,41.90
2018-08-21T02:51:49.486Z,42.90
2018-08-21T02:52:49.475Z,40.90
2018-08-21T02:53:49.465Z,40.90
2018-08-21T02:54:49.456Z,40.00
2018-08-21T02:55:49.446Z,42.30
2018-08-21T02:56:49.438Z,43.00
2018-08-21T02:57:49.430Z,40.10
2018-08-21T02:58:49.415Z,42.10
2018-08-21T02:59:49.405Z,44.20
2018-08-21T03:00:49.397Z,44.10
2018-08-21T03:01:49.385Z,45.60
2018-08-21T03:02:49.374Z,44.20
2018-08-21T03:03:49.364Z,41.10
2018-08-21T03:04:49.355Z,43.30
2018-08-21T03:05:49.344Z,45.00
2018-08-21T03:06:49.334Z,45.70
2018-08-21T03:07:49.323Z,42.00
2018-08-21T03:08:49.316Z,44.10
2018-08-21T03:09:49.303Z,45.00
2018-08-21T03:10:49.293Z,46.40
2018-08-21T03:11:49.292Z,44.90
2018-08-21T03:12:49.272Z,45.20
2018-08-21T03:13:49.261Z,46.60
2018-08-21T03:14:49.251Z,44.50
2018-08-21T03:15:49.244Z,41.90
2018-08-21T03:16:49.232Z,44.90
2018-08-21T03:17:49.221Z,48.60
2018-08-21T03:18:49.210Z,46.10
2018-08-21T03:19:49.200Z,46.80
2018-08-21T03:20:49.189Z,48.20
2018-08-21T03:21:49.306Z,50.10
2018-08-21T03:22:49.170Z,48.50
2018-08-21T03:23:49.159Z,48.40
2018-08-21T03:24:49.149Z,50.50
2018-08-21T03:25:49.139Z,50.70
2018-08-21T03:26:49.130Z,51.90
2018-08-21T03:27:49.118Z,51.80
2018-08-21T03:28:49.110Z,46.10
2018-08-21T03:29:49.097Z,52.20
2018-08-21T03:30:49.086Z,51.70
2018-08-21T03:31:49.077Z,51.30
2018-08-21T03:32:49.067Z,51.50
2018-08-21T03:33:49.058Z,52.90
2018-08-21T03:34:49.044Z,52.30
2018-08-21T03:35:49.036Z,51.70
2018-08-21T03:36:49.023Z,56.30
2018-08-21T03:37:49.013Z,52.40
2018-08-21T03:38:49.002Z,50.40
2018-08-21T03:39:48.991Z,51.50
2018-08-21T03:40:48.984Z,53.20
2018-08-21T03:41:48.970Z,51.00
2018-08-21T03:42:48.959Z,55.20
2018-08-21T03:43:48.950Z,51.40
2018-08-21T03:44:49.039Z,52.60
2018-08-21T03:45:48.932Z,54.10
2018-08-21T03:46:48.918Z,50.70
2018-08-21T03:47:48.908Z,46.90
2018-08-21T03:48:48.897Z,47.00
2018-08-21T03:49:48.886Z,46.00
2018-08-21T03:50:48.879Z,44.30
2018-08-21T03:51:48.866Z,44.20
2018-08-21T03:52:48.855Z,43.20
2018-08-21T03:53:48.844Z,43.60
2018-08-21T03:54:48.835Z,42.70
2018-08-21T03:55:48.823Z,43.80
2018-08-21T03:56:48.813Z,39.90
2018-08-21T03:57:48.804Z,42.60
2018-08-21T03:58:48.791Z,42.40
2018-08-21T03:59:48.780Z,39.00
2018-08-21T04:00:48.770Z,39.20
2018-08-21T04:01:48.759Z,39.20
2018-08-21T04:02:48.747Z,37.10
2018-08-21T04:03:48.737Z,38.60
2018-08-21T04:04:48.727Z,39.90
2018-08-21T04:05:48.716Z,38.60
2018-08-21T04:06:48.704Z,38.10
2018-08-21T04:07:48.695Z,40.20
2018-08-21T04:08:48.776Z,38.20
2018-08-21T04:09:48.666Z,36.00
2018-08-21T04:10:48.679Z,37.30
2018-08-21T04:11:48.640Z,36.20
2018-08-21T04:12:48.631Z,39.20
2018-08-21T04:13:48.622Z,37.80
2018-08-21T04:14:48.609Z,39.50
2018-08-21T04:15:48.608Z,38.70
2018-08-21T04:16:48.590Z,40.40
2018-08-21T04:17:48.576Z,41.00
2018-08-21T04:18:48.566Z,38.60
2018-08-21T04:19:48.555Z,40.10
2018-08-21T04:20:48.645Z,37.70
2018-08-21T04:21:48.532Z,40.50
2018-08-21T04:22:48.522Z,42.10
2018-08-21T04:23:48.512Z,42.10
2018-08-21T04:24:48.502Z,41.00
2018-08-21T04:25:48.490Z,41.50
2018-08-21T04:26:48.478Z,41.90
2018-08-21T04:27:48.468Z,39.00
2018-08-21T04:28:48.458Z,39.70
2018-08-21T04:29:48.446Z,41.00
2018-08-21T04:30:48.435Z,41.20
2018-08-21T04:31:48.425Z,44.50
2018-08-21T04:32:48.554Z,41.30
2018-08-21T04:33:48.402Z,40.30
2018-08-21T04:34:48.391Z,43.00
2018-08-21T04:35:48.382Z,41.90
2018-08-21T04:36:48.372Z,40.10
2018-08-21T04:37:48.359Z,42.30
2018-08-21T04:38:48.348Z,42.20
2018-08-21T04:39:48.336Z,40.70
2018-08-21T04:40:48.329Z,37.70
2018-08-21T04:41:48.314Z,42.50
2018-08-21T04:42:48.304Z,45.10
2018-08-21T04:43:48.293Z,41.10
2018-08-21T04:44:48.282Z,41.40
2018-08-21T04:45:48.271Z,43.50
2018-08-21T04:46:48.260Z,46.90
2018-08-21T04:47:48.254Z,53.70
2018-08-21T04:48:48.238Z,49.20
2018-08-21T04:49:48.226Z,53.20
2018-08-21T04:50:48.366Z,49.20
2018-08-21T04:51:48.207Z,56.80
2018-08-21T04:52:48.194Z,51.40
2018-08-21T04:53:48.181Z,55.60
2018-08-21T04:54:48.170Z,55.60
2018-08-21T04:55:48.159Z,58.30
2018-08-21T04:56:48.148Z,61.20
2018-08-21T04:57:48.136Z,65.40
2018-08-21T04:58:48.139Z,71.00
2018-08-21T04:59:48.114Z,66.00
2018-08-21T05:00:48.102Z,67.60
2018-08-21T05:01:48.089Z,60.80
2018-08-21T05:02:48.234Z,68.00
2018-08-21T05:03:48.068Z,65.60
2018-08-21T05:04:48.055Z,62.80
2018-08-21T05:05:48.097Z,69.60
2018-08-21T05:06:48.032Z,74.60
2018-08-21T05:07:48.020Z,67.50
2018-08-21T05:08:48.009Z,73.30
2018-08-21T05:09:47.997Z,63.60
2018-08-21T05:10:47.985Z,67.60
2018-08-21T05:11:47.973Z,65.20
2018-08-21T05:12:47.967Z,64.80
2018-08-21T05:13:47.950Z,61.60
2018-08-21T05:14:48.038Z,63.30
2018-08-21T05:15:47.927Z,67.40
2018-08-21T05:16:47.913Z,66.90
2018-08-21T05:17:47.902Z,65.60
2018-08-21T05:18:47.891Z,61.70
2018-08-21T05:19:47.881Z,69.80
2018-08-21T05:20:48.018Z,66.20
2018-08-21T05:21:47.857Z,62.90
2018-08-21T05:22:47.845Z,67.30
2018-08-21T05:23:47.833Z,70.70
2018-08-21T05:24:47.822Z,69.90
2018-08-21T05:25:47.810Z,67.40
2018-08-21T05:26:47.796Z,68.30
2018-08-21T05:27:47.786Z,69.50
2018-08-21T05:28:47.780Z,67.00
2018-08-21T05:29:47.765Z,65.60
2018-08-21T05:30:47.750Z,62.90
2018-08-21T05:31:47.738Z,66.40
2018-08-21T05:32:47.726Z,69.80
2018-08-21T05:33:47.713Z,72.30
2018-08-21T05:34:47.704Z,70.40
2018-08-21T05:35:47.690Z,67.30
2018-08-21T05:36:47.680Z,63.10
2018-08-21T05:37:47.667Z,66.10
2018-08-21T05:38:47.656Z,63.40
2018-08-21T05:39:47.644Z,70.70
2018-08-21T05:40:47.632Z,63.60
2018-08-21T05:41:47.620Z,64.30
2018-08-21T05:42:47.612Z,64.20
2018-08-21T05:43:47.648Z,71.20
2018-08-21T05:44:47.588Z,68.10
2018-08-21T05:45:47.575Z,61.10
2018-08-21T05:46:47.561Z,61.10
2018-08-21T05:47:47.549Z,64.40
2018-08-21T05:48:47.537Z,62.70
2018-08-21T05:49:47.525Z,67.00
2018-08-21T05:50:47.614Z,63.80
2018-08-21T05:51:47.500Z,58.40
2018-08-21T05:52:47.492Z,64.90
2018-08-21T05:53:47.477Z,68.90
2018-08-21T05:54:47.466Z,69.00
2018-08-21T05:55:47.501Z,69.40
2018-08-21T05:56:47.443Z,70.00
2018-08-21T05:57:47.433Z,71.90
2018-08-21T05:58:47.417Z,69.10
2018-08-21T05:59:47.407Z,66.40
2018-08-21T06:00:47.394Z,65.50
2018-08-21T06:01:47.383Z,61.10
2018-08-21T06:02:47.369Z,68.50
2018-08-21T06:03:47.359Z,66.90
2018-08-21T06:04:47.346Z,67.70
2018-08-21T06:05:47.335Z,72.80
2018-08-21T06:06:47.322Z,78.40
2018-08-21T06:07:47.312Z,71.50
2018-08-21T06:08:47.298Z,70.00
2018-08-21T06:09:47.287Z,68.80
2018-08-21T06:10:47.277Z,73.60
2018-08-21T06:11:47.264Z,70.90
2018-08-21T06:12:47.254Z,72.60
2018-08-21T06:13:47.239Z,78.00
2018-08-21T06:14:47.328Z,75.20
2018-08-21T06:15:47.219Z,74.90
2018-08-21T06:16:47.206Z,73.30
2018-08-21T06:17:47.192Z,76.90
2018-08-21T06:18:47.182Z,68.50
2018-08-21T06:19:47.169Z,75.70
2018-08-21T06:20:47.159Z,72.10
2018-08-21T06:21:47.144Z,78.00
2018-08-21T06:22:47.134Z,76.40
2018-08-21T06:23:47.122Z,73.20
2018-08-21T06:24:47.154Z,70.60
2018-08-21T06:25:47.096Z,68.60
2018-08-21T06:26:47.235Z,73.20
2018-08-21T06:27:47.075Z,73.30
2018-08-21T06:28:47.063Z,76.40
2018-08-21T06:29:47.049Z,77.70
2018-08-21T06:30:47.038Z,71.60
2018-08-21T06:31:47.028Z,71.80
2018-08-21T06:32:47.165Z,72.90
2018-08-21T06:33:47.002Z,73.60
2018-08-21T06:34:46.991Z,68.60
2018-08-21T06:35:46.979Z,73.70
2018-08-21T06:36:46.967Z,72.50
2018-08-21T06:37:46.956Z,75.70
2018-08-21T06:38:47.069Z,73.10
2018-08-21T06:39:47.006Z,72.10
2018-08-21T06:40:46.920Z,79.80
2018-08-21T06:41:46.906Z,72.00
2018-08-21T06:42:46.896Z,76.80
2018-08-21T06:43:46.886Z,71.60
2018-08-21T06:44:47.024Z,73.80
2018-08-21T06:45:46.862Z,72.00
2018-08-21T06:46:46.850Z,77.80
2018-08-21T06:47:46.836Z,73.90
2018-08-21T06:48:46.824Z,75.10
2018-08-21T06:49:46.814Z,73.00
2018-08-21T06:50:46.900Z,79.30
2018-08-21T06:51:46.789Z,70.80
2018-08-21T06:52:46.777Z,76.40
2018-08-21T06:53:46.774Z,74.70
2018-08-21T06:54:46.755Z,80.00
2018-08-21T06:55:46.742Z,82.40
2018-08-21T06:56:46.731Z,81.70
2018-08-21T06:57:46.718Z,78.10
2018-08-21T06:58:46.707Z,74.40
2018-08-21T06:59:46.696Z,79.60
2018-08-21T07:00:46.682Z,77.10
2018-08-21T07:01:46.670Z,75.30
2018-08-21T07:02:46.658Z,81.00
2018-08-21T07:03:46.646Z,78.90
2018-08-21T07:04:46.635Z,80.70
2018-08-21T07:05:46.621Z,85.40
2018-08-21T07:06:46.610Z,89.90
2018-08-21T07:07:46.599Z,89.10
2018-08-21T07:08:46.686Z,87.90
2018-08-21T07:09:46.575Z,94.10
2018-08-21T07:10:46.562Z,89.20
2018-08-21T07:11:46.555Z,86.80
2018-08-21T07:12:46.540Z,90.40
2018-08-21T07:13:46.528Z,90.00
2018-08-21T07:14:46.515Z,91.40
2018-08-21T07:15:46.503Z,84.20
2018-08-21T07:16:46.492Z,86.20
2018-08-21T07:17:46.477Z,88.00
2018-08-21T07:18:46.467Z,92.60
2018-08-21T07:19:46.455Z,89.80
2018-08-21T07:20:46.444Z,95.10
2018-08-21T07:21:46.437Z,95.90
2018-08-21T07:22:46.419Z,92.70
2018-08-21T07:23:46.408Z,92.30
2018-08-21T07:24:46.396Z,102.00
2018-08-21T07:25:46.383Z,101.30
2018-08-21T07:26:46.372Z,101.70
2018-08-21T07:27:46.358Z,102.40
2018-08-21T07:28:46.347Z,102.00
2018-08-21T07:29:46.334Z,106.80
2018-08-21T07:30:46.324Z,97.20
2018-08-21T07:31:46.311Z,104.70
2018-08-21T07:32:46.400Z,96.30
2018-08-21T07:33:46.285Z,107.80
2018-08-21T07:34:46.275Z,107.40
2018-08-21T07:35:46.293Z,95.10
2018-08-21T07:36:46.248Z,99.00
2018-08-21T07:37:46.236Z,106.50
2018-08-21T07:38:46.374Z,106.80
2018-08-21T07:39:46.213Z,111.30
2018-08-21T07:40:46.200Z,109.70
2018-08-21T07:41:46.194Z,104.50
2018-08-21T07:42:46.175Z,107.60
2018-08-21T07:43:46.181Z,106.00
2018-08-21T07:44:46.151Z,106.10
2018-08-21T07:45:46.137Z,111.70
2018-08-21T07:46:46.127Z,106.70
2018-08-21T07:47:46.139Z,107.50
2018-08-21T07:48:46.101Z,112.80
2018-08-21T07:49:46.089Z,109.70
2018-08-21T07:50:46.076Z,102.90
2018-08-21T07:51:46.062Z,104.70
2018-08-21T07:52:46.051Z,109.20
2018-08-21T07:53:46.053Z,120.80
2018-08-21T07:54:46.030Z,107.50
2018-08-21T07:55:46.013Z,101.00
2018-08-21T07:56:46.002Z,105.10
2018-08-21T07:57:45.986Z,101.60
2018-08-21T07:58:45.974Z,97.20
2018-08-21T07:59:45.963Z,92.50
2018-08-21T08:00:45.950Z,103.30
2018-08-21T08:01:45.938Z,100.50
2018-08-21T08:02:46.026Z,93.30
2018-08-21T08:03:45.922Z,100.70
2018-08-21T08:04:45.902Z,103.10
2018-08-21T08:05:45.889Z,94.60
2018-08-21T08:06:45.877Z,102.20
2018-08-21T08:07:45.866Z,93.10
2018-08-21T08:08:46.017Z,92.30
2018-08-21T08:09:45.854Z,95.70
2018-08-21T08:10:45.827Z,100.30
2018-08-21T08:11:45.816Z,96.50
2018-08-21T08:12:45.804Z,89.30
2018-08-21T08:13:45.823Z,98.70
2018-08-21T08:14:45.880Z,91.70
2018-08-21T08:15:45.767Z,97.40
2018-08-21T08:16:45.755Z,86.50
2018-08-21T08:17:45.742Z,94.10
2018-08-21T08:18:45.730Z,91.40
2018-08-21T08:19:45.718Z,85.60
2018-08-21T08:20:45.909Z,85.10
2018-08-21T08:21:45.693Z,88.80
2018-08-21T08:22:45.681Z,94.00
2018-08-21T08:23:45.669Z,97.20
2018-08-21T08:24:45.659Z,96.00
2018-08-21T08:25:45.644Z,91.00
2018-08-21T08:26:45.732Z,94.00
2018-08-21T08:27:45.619Z,91.50
2018-08-21T08:28:45.609Z,97.10
2018-08-21T08:29:45.600Z,95.70
2018-08-21T08:30:45.587Z,94.80
2018-08-21T08:31:45.572Z,90.00
2018-08-21T08:32:45.561Z,98.40
2018-08-21T08:33:45.604Z,96.80
2018-08-21T08:34:45.540Z,93.70
2018-08-21T08:35:45.577Z,93.80
2018-08-21T08:36:45.513Z,88.00
2018-08-21T08:37:45.554Z,93.30
2018-08-21T08:38:45.486Z,91.70
2018-08-21T08:39:45.476Z,83.20
2018-08-21T08:40:45.463Z,83.70
2018-08-21T08:41:45.534Z,84.00
2018-08-21T08:42:45.439Z,85.50
2018-08-21T08:43:45.428Z,83.40
2018-08-21T08:44:45.416Z,88.70
2018-08-21T08:45:45.404Z,85.40
2018-08-21T08:46:45.392Z,85.80
2018-08-21T08:47:45.465Z,89.60
2018-08-21T08:48:45.367Z,92.10
2018-08-21T08:49:45.356Z,83.20
2018-08-21T08:50:45.495Z,90.80
2018-08-21T08:51:45.332Z,85.20
2018-08-21T08:52:45.321Z,94.30
2018-08-21T08:53:45.309Z,92.40
2018-08-21T08:54:45.297Z,90.30
2018-08-21T08:55:45.288Z,86.40
2018-08-21T08:56:45.272Z,101.30
2018-08-21T08:57:45.261Z,98.20
2018-08-21T08:58:45.249Z,88.70
2018-08-21T08:59:45.236Z,88.60
2018-08-21T09:00:45.226Z,90.30
2018-08-21T09:01:45.212Z,93.30
2018-08-21T09:02:45.202Z,95.70
2018-08-21T09:03:45.190Z,92.20
2018-08-21T09:04:45.239Z,88.40
2018-08-21T09:05:45.166Z,90.30
2018-08-21T09:06:45.155Z,91.40
2018-08-21T09:07:45.143Z,88.30
2018-08-21T09:08:45.133Z,95.70
2018-08-21T09:09:45.117Z,89.80
2018-08-21T09:10:45.107Z,87.20
2018-08-21T09:11:45.096Z,92.30
2018-08-21T09:12:45.082Z,95.40
2018-08-21T09:13:45.071Z,90.30
2018-08-21T09:14:45.058Z,88.70
2018-08-21T09:15:45.050Z,86.40
2018-08-21T09:16:45.036Z,88.70
2018-08-21T09:17:45.024Z,89.40
2018-08-21T09:18:45.015Z,94.00
2018-08-21T09:19:45.004Z,97.10
2018-08-21T09:20:44.989Z,88.60
2018-08-21T09:21:44.975Z,95.50
2018-08-21T09:22:44.965Z,82.10
2018-08-21T09:23:44.952Z,93.80
2018-08-21T09:24:44.943Z,82.80
2018-08-21T09:25:44.929Z,84.00
2018-08-21T09:26:44.917Z,87.60
2018-08-21T09:27:44.906Z,93.20
2018-08-21T09:28:44.895Z,85.80
2018-08-21T09:29:44.882Z,92.10
2018-08-21T09:30:44.870Z,89.00
2018-08-21T09:31:44.861Z,82.00
2018-08-21T09:32:44.848Z,85.90
2018-08-21T09:33:44.835Z,87.60
2018-08-21T09:34:44.822Z,80.00
2018-08-21T09:35:44.812Z,90.90
2018-08-21T09:36:44.799Z,88.10
2018-08-21T09:37:44.788Z,82.40
2018-08-21T09:38:44.875Z,76.00
2018-08-21T09:39:44.763Z,86.70
2018-08-21T09:40:44.752Z,78.30
2018-08-21T09:41:44.739Z,81.40
2018-08-21T09:42:44.727Z,84.60
2018-08-21T09:43:44.720Z,83.70
2018-08-21T09:44:44.704Z,83.60
2018-08-21T09:45:44.693Z,85.80
2018-08-21T09:46:44.681Z,99.40
2018-08-21T09:47:44.669Z,90.50
2018-08-21T09:48:44.657Z,84.50
2018-08-21T09:49:44.646Z,91.20
2018-08-21T09:50:44.633Z,86.60
2018-08-21T09:51:44.627Z,84.10
2018-08-21T09:52:44.610Z,83.40
2018-08-21T09:53:44.599Z,88.40
2018-08-21T09:54:44.589Z,80.10
2018-08-21T09:55:44.575Z,82.60
2018-08-21T09:56:44.564Z,85.50
2018-08-21T09:57:44.551Z,85.20
2018-08-21T09:58:44.540Z,79.90
2018-08-21T09:59:44.530Z,86.90
2018-08-21T10:00:44.521Z,75.20
2018-08-21T10:01:44.505Z,85.90
2018-08-21T10:02:44.495Z,81.60
2018-08-21T10:03:44.482Z,77.70
2018-08-21T10:04:44.473Z,79.20
2018-08-21T10:05:44.460Z,79.00
2018-08-21T10:06:44.462Z,75.80
2018-08-21T10:07:44.438Z,79.80
2018-08-21T10:08:44.527Z,76.30
2018-08-21T10:09:44.414Z,74.90
2018-08-21T10:10:44.402Z,72.70
2018-08-21T10:11:44.391Z,72.20
2018-08-21T10:12:44.382Z,66.70
2018-08-21T10:13:44.369Z,69.40
2018-08-21T10:14:44.356Z,72.50
2018-08-21T10:15:44.346Z,71.60
2018-08-21T10:16:44.336Z,67.80
2018-08-21T10:17:44.324Z,72.20
2018-08-21T10:18:44.313Z,68.80
2018-08-21T10:19:44.302Z,68.70
2018-08-21T10:20:44.289Z,66.60
2018-08-21T10:21:44.279Z,67.40
2018-08-21T10:22:44.268Z,59.40
2018-08-21T10:23:44.259Z,65.60
2018-08-21T10:24:44.247Z,61.20
2018-08-21T10:25:44.234Z,58.40
2018-08-21T10:26:44.323Z,56.90
2018-08-21T10:27:44.213Z,48.00
2018-08-21T10:28:44.202Z,42.50
2018-08-21T10:29:44.194Z,44.30
2018-08-21T10:30:44.180Z,50.70
2018-08-21T10:31:44.169Z,45.20
2018-08-21T10:32:44.159Z,48.40
2018-08-21T10:33:44.148Z,45.10
2018-08-21T10:34:44.159Z,42.60
2018-08-21T10:35:44.125Z,42.70
2018-08-21T10:36:44.115Z,41.20
2018-08-21T10:37:44.105Z,39.40
2018-08-21T10:38:44.093Z,44.80
2018-08-21T10:39:44.083Z,46.20
2018-08-21T10:40:44.074Z,41.10
2018-08-21T10:41:44.062Z,44.30
2018-08-21T10:42:44.051Z,40.40
2018-08-21T10:43:44.042Z,37.90
2018-08-21T10:44:44.032Z,38.90
2018-08-21T10:45:44.020Z,43.10
2018-08-21T10:46:44.011Z,38.90
2018-08-21T10:47:44.001Z,37.00
2018-08-21T10:48:43.992Z,34.40
2018-08-21T10:49:43.979Z,37.50
2018-08-21T10:50:44.120Z,36.90
2018-08-21T10:51:43.991Z,39.00
2018-08-21T10:52:43.948Z,38.70
2018-08-21T10:53:43.938Z,38.40
2018-08-21T10:54:43.927Z,33.40
2018-08-21T10:55:43.920Z,45.30
2018-08-21T10:56:43.908Z,37.10
2018-08-21T10:57:43.897Z,35.40
2018-08-21T10:58:43.888Z,39.20
2018-08-21T10:59:43.877Z,33.60
2018-08-21T11:00:43.867Z,33.90
2018-08-21T11:01:43.856Z,31.60
2018-08-21T11:02:43.847Z,30.50
2018-08-21T11:03:43.836Z,32.50
2018-08-21T11:04:43.827Z,33.20
2018-08-21T11:05:43.815Z,32.50
2018-08-21T11:06:43.806Z,29.30
2018-08-21T11:07:43.797Z,33.50
2018-08-21T11:08:43.786Z,28.40
2018-08-21T11:09:43.777Z,27.20
2018-08-21T11:10:43.765Z,27.30
2018-08-21T11:11:43.760Z,27.20
2018-08-21T11:12:43.747Z,26.50
2018-08-21T11:13:43.737Z,25.80
2018-08-21T11:14:43.728Z,27.70
2018-08-21T11:15:43.717Z,29.00
2018-08-21T11:16:43.706Z,26.80
2018-08-21T11:17:43.696Z,29.50
2018-08-21T11:18:43.687Z,25.30
2018-08-21T11:19:43.678Z,26.80
2018-08-21T11:20:43.819Z,24.10
2018-08-21T11:21:43.657Z,29.30
2018-08-21T11:22:43.649Z,24.90
2018-08-21T11:23:43.638Z,26.00
2018-08-21T11:24:43.632Z,24.00
2018-08-21T11:25:43.619Z,22.90
2018-08-21T11:26:43.609Z,25.40
2018-08-21T11:27:43.601Z,24.70
2018-08-21T11:28:43.591Z,23.30
2018-08-21T11:29:43.629Z,21.20
2018-08-21T11:30:43.571Z,21.50
2018-08-21T11:31:43.563Z,19.00
2018-08-21T11:32:43.552Z,20.30
2018-08-21T11:33:43.541Z,23.30
2018-08-21T11:34:43.532Z,20.30
2018-08-21T11:35:43.522Z,19.10
2018-08-21T11:36:43.515Z,20.10
2018-08-21T11:37:43.503Z,21.50
2018-08-21T11:38:43.494Z,17.10
2018-08-21T11:39:43.486Z,20.10
2018-08-21T11:40:43.475Z,19.70
2018-08-21T11:41:43.466Z,19.40
2018-08-21T11:42:43.456Z,18.10
2018-08-21T11:43:43.448Z,17.40
2018-08-21T11:44:43.439Z,20.40
2018-08-21T11:45:43.429Z,18.10
2018-08-21T11:46:43.421Z,20.70
2018-08-21T11:47:43.411Z,20.80
2018-08-21T11:48:43.402Z,16.60
2018-08-21T11:49:43.393Z,18.70
2018-08-21T11:50:43.383Z,22.00
2018-08-21T11:51:43.376Z,20.10
2018-08-21T11:52:43.367Z,18.20
2018-08-21T11:53:43.359Z,18.20
2018-08-21T11:54:43.350Z,17.40
2018-08-21T11:55:43.344Z,17.90
2018-08-21T11:56:43.333Z,19.20
2018-08-21T11:57:43.324Z,17.10
2018-08-21T11:58:43.316Z,16.00
2018-08-21T11:59:43.309Z,18.50
2018-08-21T12:00:43.301Z,18.10
2018-08-21T12:01:43.291Z,18.00
2018-08-21T12:02:43.282Z,17.40
2018-08-21T12:03:43.276Z,17.00
2018-08-21T12:04:43.269Z,17.80
2018-08-21T12:05:43.261Z,18.20
2018-08-21T12:06:43.255Z,15.90
2018-08-21T12:07:43.248Z,14.10
2018-08-21T12:08:43.238Z,14.80
2018-08-21T12:09:43.230Z,18.00
2018-08-21T12:10:43.223Z,15.20
2018-08-21T12:11:43.216Z,15.80
2018-08-21T12:12:43.210Z,15.90
2018-08-21T12:13:43.200Z,14.60
2018-08-21T12:14:43.206Z,16.70
2018-08-21T12:15:43.186Z,16.70
2018-08-21T12:16:43.181Z,18.30
2018-08-21T12:17:43.174Z,17.00
2018-08-21T12:18:43.167Z,15.00
2018-08-21T12:19:43.161Z,16.10
2018-08-21T12:20:43.155Z,16.30
2018-08-21T12:21:43.150Z,15.00
2018-08-21T12:22:43.141Z,14.80
2018-08-21T12:23:43.148Z,15.20
2018-08-21T12:24:43.128Z,15.90
2018-08-21T12:25:43.122Z,15.50
2018-08-21T12:26:43.115Z,16.90
2018-08-21T12:27:43.110Z,15.20
2018-08-21T12:28:43.102Z,16.50
2018-08-21T12:29:43.105Z,15.70
2018-08-21T12:30:43.091Z,17.50
2018-08-21T12:31:43.085Z,17.20
2018-08-21T12:32:43.080Z,17.20
2018-08-21T12:33:43.072Z,15.50
2018-08-21T12:34:43.069Z,14.60
2018-08-21T12:35:43.062Z,14.10
2018-08-21T12:36:43.076Z,14.20
2018-08-21T12:37:43.050Z,16.10
2018-08-21T12:38:43.047Z,13.80
2018-08-21T12:39:43.038Z,14.30
2018-08-21T12:40:43.034Z,17.60
2018-08-21T12:41:43.026Z,14.30
2018-08-21T12:42:43.021Z,14.20
2018-08-21T12:43:43.018Z,14.00
2018-08-21T12:44:43.012Z,14.00
2018-08-21T12:45:43.005Z,13.80
2018-08-21T12:46:43.001Z,16.40
2018-08-21T12:47:42.997Z,13.80
2018-08-21T12:48:42.991Z,13.40
2018-08-21T12:49:42.988Z,15.10
2018-08-21T12:50:42.980Z,14.50
2018-08-21T12:51:42.975Z,18.40